Time;durP1;ratioP1;P1;durP2;ratioP2;P2;SDS_P1;SDS_P2;PMS_P1;PMS_P2;Temp;Humidity;BMP_temperature;BMP_pressure;BME280_temperature;BME280_humidity;BME280_pressure;Samples;Min_cycle;Max_cycle;Signal;HPM_P1;HPM_P2
2022/04/22 00:02:11;;;;;;;20.08;13.43;;;;;;;6.78;86.07;99188.63;1704649;82;20998;-72
2022/04/22 00:04:48;;;;;;;19.17;12.25;;;;;;;6.75;86.12;99196.09;1709735;82;21078;-74
2022/04/22 00:07:18;;;;;;;22.35;13.95;;;;;;;6.77;86.15;99197.40;1706070;82;21134;-74
2022/04/22 00:09:54;;;;;;;18.75;13.15;;;;;;;6.77;86.05;99197.40;1721202;82;21561;-77
2022/04/22 00:12:21;;;;;;;22.50;13.23;;;;;;;6.76;86.11;99194.41;1704277;82;21057;-74
2022/04/22 00:14:56;;;;;;;16.70;11.50;;;;;;;6.74;86.12;99189.80;1706930;82;21018;-75
2022/04/22 00:17:25;;;;;;;18.77;12.65;;;;;;;6.76;86.18;99191.68;1700668;82;21091;-73
2022/04/22 00:19:55;;;;;;;17.75;12.98;;;;;;;6.76;86.21;99195.78;1680183;83;21043;-75
2022/04/22 00:22:24;;;;;;;18.73;12.18;;;;;;;6.77;86.22;99201.50;1654155;85;21052;-73
2022/04/22 00:25:08;;;;;;;21.27;13.78;;;;;;;6.78;86.17;99196.30;1655292;85;21032;-73
2022/04/22 00:27:42;;;;;;;21.48;13.48;;;;;;;6.78;86.17;99195.48;1681728;83;21095;-72
2022/04/22 00:30:13;;;;;;;17.80;12.40;;;;;;;6.78;86.26;99186.72;1683889;83;21530;-73
2022/04/22 00:32:45;;;;;;;18.25;12.65;;;;;;;6.81;86.29;99196.23;1686002;83;21093;-72
2022/04/22 00:35:27;;;;;;;17.00;11.75;;;;;;;6.81;86.28;99191.58;1685608;83;21000;-75
2022/04/22 00:37:55;;;;;;;21.02;13.38;;;;;;;6.81;86.23;99189.39;1683034;83;21012;-75
2022/04/22 00:40:25;;;;;;;18.05;12.35;;;;;;;6.77;86.14;99191.92;1655906;85;21068;-72
2022/04/22 00:42:59;;;;;;;17.27;12.18;;;;;;;6.77;86.23;99199.34;1678192;84;21115;-73
2022/04/22 00:45:27;;;;;;;16.10;11.68;;;;;;;6.72;86.00;99198.86;1680236;83;21017;-73
2022/04/22 00:47:54;;;;;;;18.37;11.48;;;;;;;6.62;86.01;99195.75;1683077;83;21548;-74
2022/04/22 00:50:22;;;;;;;14.70;9.40;;;;;;;6.61;86.20;99193.33;1681960;83;21044;-73
2022/04/22 00:52:50;;;;;;;13.50;9.50;;;;;;;6.56;86.20;99192.31;1681443;83;21865;-72
2022/04/22 00:55:17;;;;;;;11.03;7.78;;;;;;;6.53;86.31;99196.21;1678383;83;21039;-74
2022/04/22 00:57:47;;;;;;;11.65;8.05;;;;;;;6.52;86.40;99189.09;1657401;85;21537;-73
2022/04/22 01:00:15;;;;;;;11.50;7.72;;;;;;;6.52;86.37;99191.83;1681938;84;21092;-74
2022/04/22 01:02:45;;;;;;;11.78;7.95;;;;;;;6.50;86.28;99189.39;1682909;83;21071;-72
2022/04/22 01:11:06;;;;;;;13.25;9.35;;;;;;;6.43;86.39;99190.36;1681219;83;21028;-73
2022/04/22 01:13:34;;;;;;;12.68;8.78;;;;;;;6.43;86.50;99196.62;1683706;83;21075;-71
2022/04/22 01:16:06;;;;;;;14.25;9.53;;;;;;;6.42;86.61;99189.55;1681967;84;21028;-73
2022/04/22 01:18:33;;;;;;;10.55;7.78;;;;;;;6.44;86.66;99189.23;1701105;83;21279;-73
2022/04/22 01:21:06;;;;;;;13.18;8.83;;;;;;;6.48;86.78;99186.72;1717776;82;21025;-74
2022/04/22 01:23:40;;;;;;;15.40;9.20;;;;;;;6.51;86.84;99191.59;1716070;82;21777;-71
2022/04/22 01:26:12;;;;;;;;;;;;;;;6.53;86.89;99186.63;1718146;82;21057;-72
2022/04/22 01:28:43;;;;;;;14.73;7.62;;;;;;;6.55;86.94;99185.20;1683240;83;20148;-72
2022/04/22 01:31:11;;;;;;;12.55;8.78;;;;;;;6.57;86.96;99191.19;1703251;82;21248;-75
2022/04/22 01:33:41;;;;;;;12.73;8.68;;;;;;;6.53;86.75;99188.81;1717389;82;21065;-73
2022/04/22 01:36:16;;;;;;;11.65;8.70;;;;;;;6.52;86.68;99181.70;1719931;82;21028;-73
2022/04/22 01:38:45;;;;;;;17.37;9.78;;;;;;;6.50;86.75;99189.39;1689892;83;21053;-73
2022/04/22 01:41:15;;;;;;;17.35;9.13;;;;;;;6.50;86.79;99185.29;1721574;82;21032;-72
2022/04/22 01:43:50;;;;;;;16.00;9.35;;;;;;;6.51;86.91;99180.09;1713720;82;21530;-72
2022/04/22 01:46:17;;;;;;;14.18;10.28;;;;;;;6.53;86.94;99178.41;1703537;83;21116;-73
2022/04/22 01:48:50;;;;;;;15.20;9.55;;;;;;;6.55;86.98;99173.45;1700926;83;21050;-72
2022/04/22 01:51:19;;;;;;;16.07;9.85;;;;;;;6.53;86.84;99171.02;1717470;82;21147;-74
2022/04/22 01:53:54;;;;;;;16.15;11.38;;;;;;;6.53;86.81;99172.94;1714899;82;21072;-73
2022/04/22 01:56:22;;;;;;;14.13;9.73;;;;;;;6.50;86.73;99168.86;1713390;82;21077;-72
2022/04/22 01:58:54;;;;;;;12.93;9.10;;;;;;;6.50;86.90;99179.81;1715587;82;21652;-75
2022/04/22 02:01:25;;;;;;;10.93;8.73;;;;;;;6.48;86.93;99167.01;1715211;82;21053;-75
2022/04/22 02:03:55;;;;;;;13.32;9.93;;;;;;;6.49;86.93;99171.36;1696971;83;21014;-71
2022/04/22 02:06:32;;;;;;;11.97;9.08;;;;;;;6.51;87.04;99175.16;1721213;82;25158;-73
2022/04/22 02:09:04;;;;;;;12.10;9.48;;;;;;;6.52;87.05;99177.59;1716697;82;21026;-73
2022/04/22 02:11:40;;;;;;;14.47;9.88;;;;;;;6.53;86.96;99176.50;1716113;82;21097;-72
2022/04/22 02:14:09;;;;;;;13.60;8.83;;;;;;;6.52;87.02;99179.52;1703492;82;21561;-73
2022/04/22 02:16:44;;;;;;;14.45;10.45;;;;;;;6.51;87.13;99175.98;1716718;82;21112;-72
2022/04/22 02:19:15;;;;;;;;;;;;;;;6.51;87.20;99178.72;1714893;83;21045;-73
2022/04/22 02:21:54;;;;;;;14.80;11.40;;;;;;;6.54;87.21;99179.48;1701062;82;21898;-72
2022/04/22 02:24:27;;;;;;;15.05;10.35;;;;;;;6.54;87.26;99173.19;1706474;82;21074;-72
2022/04/22 02:29:49;;;;;;;13.78;10.35;;;;;;;6.56;87.25;99181.91;1710027;82;21086;-73
2022/04/22 02:32:19;;;;;;;15.20;11.00;;;;;;;6.55;87.24;99183.04;1706192;82;21105;-73
2022/04/22 02:34:49;;;;;;;15.50;10.50;;;;;;;6.56;87.37;99184.66;1709912;82;21212;-71
2022/04/22 02:37:20;;;;;;;14.75;10.72;;;;;;;6.56;87.38;99180.00;1714577;82;21073;-73
2022/04/22 02:39:49;;;;;;;13.38;10.53;;;;;;;6.58;87.42;99184.59;1704187;82;21506;-72
2022/04/22 02:45:26;;;;;;;21.62;11.95;;;;;;;6.57;87.51;99174.77;1706074;82;21109;-72
2022/04/22 02:47:42;;;;;;;16.80;10.98;;;;;;;6.59;87.62;99179.94;1703675;84;21335;-72
2022/04/22 02:50:15;;;;;;;15.78;12.00;;;;;;;6.61;87.77;99178.27;1708557;82;21073;-72
2022/04/22 02:52:43;;;;;;;16.45;11.70;;;;;;;6.65;87.70;99184.77;1707058;82;21524;-70
2022/04/22 02:55:11;;;;;;;15.28;12.18;;;;;;;6.66;87.79;99179.54;1706798;82;21085;-72
2022/04/22 02:57:45;;;;;;;14.87;10.88;;;;;;;6.68;87.79;99182.80;1707201;82;21049;-71
2022/04/22 03:00:14;;;;;;;14.43;10.85;;;;;;;6.70;87.85;99187.42;1704996;82;21566;-73
2022/04/22 03:02:45;;;;;;;18.85;12.37;;;;;;;6.71;87.82;99187.66;1706677;82;21042;-72
2022/04/22 03:05:13;;;;;;;17.07;11.28;;;;;;;6.73;87.81;99187.36;1707474;82;22272;-72
2022/04/22 03:07:43;;;;;;;15.25;11.03;;;;;;;6.71;87.68;99189.03;1707684;82;21719;-71
2022/04/22 03:10:11;;;;;;;16.45;11.90;;;;;;;6.70;87.79;99191.53;1706652;82;21061;-72
2022/04/22 03:12:42;;;;;;;15.30;10.98;;;;;;;6.72;87.92;99191.22;1706548;82;21049;-74
2022/04/22 03:15:16;;;;;;;14.90;11.05;;;;;;;6.70;87.90;99184.68;1706211;82;20998;-70
2022/04/22 03:17:44;;;;;;;14.53;11.03;;;;;;;6.69;87.90;99192.63;1711226;82;21120;-71
2022/04/22 03:20:16;;;;;;;14.85;12.78;;;;;;;6.69;88.05;99187.15;1715219;82;21096;-73
2022/04/22 03:22:45;;;;;;;15.65;11.38;;;;;;;6.71;88.17;99189.03;1711226;82;21030;-70
2022/04/22 03:25:16;;;;;;;18.15;11.85;;;;;;;6.75;88.15;99198.28;1720167;82;21061;-71
2022/04/22 03:27:51;;;;;;;16.10;12.63;;;;;;;6.76;88.29;99199.89;1704255;83;21065;-71
2022/04/22 03:30:37;;;;;;;18.75;13.10;;;;;;;6.77;88.34;99194.66;1713787;82;21068;-73
2022/04/22 03:33:07;;;;;;;14.60;11.75;;;;;;;6.77;88.33;99198.77;1714438;82;21072;-72
2022/04/22 03:35:39;;;;;;;14.00;12.30;;;;;;;6.79;88.48;99207.50;1719405;82;21022;-72
2022/04/22 03:38:11;;;;;;;18.17;13.53;;;;;;;6.80;88.40;99204.21;1715313;82;22019;-73
2022/04/22 03:40:39;;;;;;;18.52;13.58;;;;;;;6.80;88.47;99201.48;1714299;82;21085;-72
2022/04/22 03:43:11;;;;;;;16.42;13.32;;;;;;;6.82;88.49;99202.78;1714453;82;21030;-71
2022/04/22 03:45:39;;;;;;;16.65;12.95;;;;;;;6.86;88.62;99204.36;1714199;82;21061;-72
2022/04/22 03:48:10;;;;;;;15.65;12.47;;;;;;;6.89;88.56;99207.06;1714948;82;21077;-74
2022/04/22 03:50:44;;;;;;;18.52;13.70;;;;;;;6.90;88.62;99203.20;1714379;82;21028;-73
2022/04/22 03:53:12;;;;;;;16.65;13.15;;;;;;;6.90;88.70;99211.42;1710454;82;21552;-74
2022/04/22 03:55:48;;;;;;;15.58;12.15;;;;;;;6.91;88.58;99223.44;1719038;82;21213;-72
2022/04/22 03:58:18;;;;;;;19.00;14.83;;;;;;;6.88;88.56;99213.09;1718512;82;21159;-73
2022/04/22 04:00:50;;;;;;;16.35;12.88;;;;;;;6.86;88.70;99208.47;1717602;82;21057;-73
2022/04/22 04:03:26;;;;;;;20.97;12.45;;;;;;;6.86;88.72;99213.16;1714041;82;21026;-74
2022/04/22 04:05:58;;;;;;;18.42;13.70;;;;;;;6.88;88.83;99210.36;1716960;82;21060;-73
2022/04/22 04:08:30;;;;;;;17.17;11.97;;;;;;;6.91;88.82;99203.45;1729194;80;21037;-73
2022/04/22 04:16:40;;;;;;;16.27;13.30;;;;;;;6.97;88.97;99219.23;1713144;82;21148;-74
2022/04/22 04:24:45;;;;;;;16.93;12.80;;;;;;;6.99;89.18;99214.27;1733072;81;21020;-72
2022/04/22 04:27:15;;;;;;;17.73;13.22;;;;;;;6.99;89.17;99210.16;1733317;81;21029;-71
2022/04/22 04:29:48;;;;;;;15.43;12.03;;;;;;;6.99;89.19;99217.02;1737979;81;21037;-70
2022/04/22 04:32:18;;;;;;;16.12;12.30;;;;;;;6.94;89.44;99218.72;1731928;81;21521;-72
2022/04/22 04:34:52;;;;;;;18.75;14.15;;;;;;;6.94;89.42;99220.67;1729736;81;21576;-72
2022/04/22 04:37:18;;;;;;;19.85;14.13;;;;;;;6.94;89.47;99228.89;1733745;81;21068;-71
2022/04/22 04:39:48;;;;;;;17.57;13.48;;;;;;;6.92;89.67;99227.82;1732922;81;21020;-72
2022/04/22 04:42:16;;;;;;;16.20;12.73;;;;;;;6.96;89.92;99215.67;1732785;81;21599;-74
2022/04/22 04:44:53;;;;;;;15.43;12.90;;;;;;;7.03;90.11;99219.38;1729680;81;21056;-71
2022/04/22 04:50:06;;;;;;;16.95;12.53;;;;;;;7.10;90.19;99223.91;1739323;81;21063;-72
2022/04/22 04:52:35;;;;;;;17.85;12.95;;;;;;;7.11;90.07;99231.03;1734581;81;21025;-70
2022/04/22 04:55:01;;;;;;;18.35;13.72;;;;;;;7.08;90.00;99229.45;1732186;81;21814;-71
2022/04/22 04:57:27;;;;;;;19.92;13.48;;;;;;;7.04;90.14;99234.17;1733375;81;21025;-71
2022/04/22 05:00:05;;;;;;;16.77;13.53;;;;;;;7.06;90.41;99237.40;1704788;82;21084;-72
2022/04/22 05:02:35;;;;;;;16.57;13.78;;;;;;;7.10;90.55;99242.27;1732678;81;21061;-72
2022/04/22 05:05:11;;;;;;;19.07;13.98;;;;;;;7.13;90.60;99248.53;1732137;81;21077;-73
2022/04/22 05:07:57;;;;;;;20.57;13.98;;;;;;;7.14;90.60;99246.86;1737889;81;21084;-73
2022/04/22 05:10:29;;;;;;;21.65;14.00;;;;;;;7.17;90.60;99244.05;1731177;81;21569;-72
2022/04/22 05:13:03;;;;;;;19.48;14.25;;;;;;;7.20;90.79;99249.50;1733064;81;21120;-72
2022/04/22 05:15:33;;;;;;;20.30;15.53;;;;;;;7.23;90.86;99253.82;1733985;81;21573;-71
2022/04/22 05:18:07;;;;;;;22.07;15.58;;;;;;;7.26;90.79;99247.73;1736890;81;21123;-72
2022/04/22 05:20:35;;;;;;;21.33;15.90;;;;;;;7.27;90.78;99256.19;1728396;81;21172;-72
2022/04/22 05:23:14;;;;;;;18.67;15.50;;;;;;;7.28;90.74;99249.58;1717040;82;21522;-73
2022/04/22 05:25:47;;;;;;;19.35;15.53;;;;;;;7.29;90.87;99252.59;1720843;82;21097;-72
2022/04/22 05:28:16;;;;;;;19.07;14.63;;;;;;;7.34;90.91;99260.45;1693234;83;21101;-72
2022/04/22 05:33:30;;;;;;;21.33;14.80;;;;;;;7.35;90.84;99271.13;1666518;84;21641;-71
2022/04/22 05:35:58;;;;;;;21.05;14.25;;;;;;;7.36;90.74;99270.55;1700760;82;21100;-73
2022/04/22 05:38:25;;;;;;;21.70;16.15;;;;;;;7.35;90.83;99266.20;1721400;82;21065;-73
2022/04/22 05:40:53;;;;;;;20.90;16.20;;;;;;;7.38;90.86;99275.18;1730888;82;21034;-72
2022/04/22 05:43:24;;;;;;;19.20;14.87;;;;;;;7.38;90.88;99278.74;1718756;82;21024;-74
2022/04/22 05:45:58;;;;;;;20.12;15.83;;;;;;;7.37;90.81;99278.47;1719807;82;21327;-74
2022/04/22 05:48:28;;;;;;;26.33;16.07;;;;;;;7.37;90.90;99282.58;1721318;82;21017;-72
2022/04/22 05:50:57;;;;;;;24.98;16.23;;;;;;;7.41;91.04;99285.53;1721915;82;21049;-72
2022/04/22 05:53:24;;;;;;;22.55;16.07;;;;;;;7.45;91.16;99287.11;1715269;82;21030;-72
2022/04/22 05:56:08;;;;;;;21.07;16.60;;;;;;;7.48;91.24;99286.49;1722970;82;20982;-72
2022/04/22 05:58:41;;;;;;;21.53;15.80;;;;;;;7.55;91.21;99284.16;1710888;82;21045;-71
2022/04/22 06:01:15;;;;;;;23.25;17.80;;;;;;;7.55;91.21;99284.16;1692159;83;21120;-72
2022/04/22 06:03:46;;;;;;;22.52;17.05;;;;;;;7.56;91.24;99284.41;1711831;82;21026;-73
2022/04/22 06:06:15;;;;;;;28.17;18.40;;;;;;;7.58;91.35;99283.55;1718846;82;21029;-73
2022/04/22 06:11:29;;;;;;;21.55;16.37;;;;;;;7.66;91.33;99287.49;1719624;82;21081;-73
2022/04/22 06:14:00;;;;;;;24.23;17.52;;;;;;;7.69;91.28;99284.71;1713356;82;22393;-72
2022/04/22 06:16:32;;;;;;;22.73;16.95;;;;;;;7.71;91.31;99290.13;1715254;82;21529;-72
2022/04/22 06:19:02;;;;;;;;;;;;;;;7.72;91.26;99293.69;1719601;81;21029;-73
2022/04/22 06:21:36;;;;;;;26.02;18.52;;;;;;;7.75;91.42;99293.08;1681538;83;20218;-72
2022/04/22 06:24:04;;;;;;;36.13;17.45;;;;;;;7.77;91.62;99293.03;1684402;83;21096;-73
2022/04/22 06:26:36;;;;;;;28.38;18.77;;;;;;;7.84;91.59;99291.80;1678742;84;22464;-72
2022/04/22 06:29:05;;;;;;;24.90;18.55;;;;;;;7.86;91.69;99297.25;1683426;84;21082;-73
2022/04/22 06:31:33;;;;;;;23.85;17.65;;;;;;;7.91;91.81;99300.44;1685572;83;21115;-72
2022/04/22 06:34:01;;;;;;;22.13;17.90;;;;;;;7.98;91.75;99309.62;1685223;83;21639;-73
2022/04/22 06:36:40;;;;;;;23.07;17.07;;;;;;;8.00;91.46;99310.13;1681317;83;21551;-72
2022/04/22 06:39:10;;;;;;;24.35;18.12;;;;;;;7.98;91.22;99310.98;1686168;83;21059;-72
2022/04/22 06:47:12;;;;;;;24.00;18.82;;;;;;;7.97;91.26;99315.66;1688153;83;21154;-71
2022/04/22 06:49:41;;;;;;;26.12;20.27;;;;;;;7.98;91.38;99315.92;1683752;83;21609;-72
2022/04/22 06:52:11;;;;;;;27.22;19.87;;;;;;;8.01;91.38;99320.80;1686438;83;21059;-73
2022/04/22 06:54:41;;;;;;;26.12;19.80;;;;;;;8.04;91.41;99323.47;1692726;83;21055;-74
2022/04/22 06:57:11;;;;;;;30.08;21.05;;;;;;;8.09;91.30;99328.02;1689221;83;21032;-73
2022/04/22 06:59:38;;;;;;;31.37;21.23;;;;;;;8.11;91.38;99325.79;1685249;83;21095;-73
2022/04/22 07:02:15;;;;;;;30.92;20.17;;;;;;;8.12;91.26;99326.06;1691486;83;20996;-72
2022/04/22 07:04:54;;;;;;;26.40;19.65;;;;;;;8.12;91.23;99327.44;1687326;83;21027;-73
2022/04/22 07:07:22;;;;;;;27.22;20.20;;;;;;;8.15;91.24;99325.44;1686511;83;21138;-71
2022/04/22 07:09:50;;;;;;;31.02;20.25;;;;;;;8.16;91.15;99327.05;1692651;83;21039;-71
2022/04/22 07:12:18;;;;;;;29.05;21.25;;;;;;;8.21;91.11;99328.86;1692322;83;21479;-71
2022/04/22 07:14:48;;;;;;;28.47;21.15;;;;;;;8.24;91.28;99323.57;1696681;82;21051;-73
2022/04/22 07:17:15;;;;;;;26.77;19.27;;;;;;;8.32;91.41;99325.34;1684686;85;21080;-72
2022/04/22 07:19:47;;;;;;;30.43;21.23;;;;;;;8.35;91.39;99325.53;1694029;80;21120;-71
2022/04/22 07:22:22;;;;;;;27.70;20.85;;;;;;;8.37;91.06;99327.97;1705691;84;21062;-73
2022/04/22 07:24:54;;;;;;;25.55;19.60;;;;;;;8.37;91.04;99330.72;1708067;82;21125;-71
2022/04/22 07:27:30;;;;;;;26.37;19.98;;;;;;;8.40;91.25;99333.66;1706082;82;21022;-71
2022/04/22 07:30:07;;;;;;;29.50;21.10;;;;;;;8.45;91.39;99331.89;1705055;84;21038;-71
2022/04/22 07:32:39;;;;;;;30.97;21.87;;;;;;;8.47;91.25;99329.66;1713847;82;21142;-72
2022/04/22 07:35:12;;;;;;;31.27;22.62;;;;;;;8.49;91.23;99335.11;1703666;82;21061;-71
2022/04/22 07:37:42;;;;;;;28.40;20.77;;;;;;;8.52;91.03;99335.86;1708668;82;21063;-71
2022/04/22 07:40:14;;;;;;;29.18;20.72;;;;;;;8.54;91.03;99334.17;1703320;84;21105;-71
2022/04/22 07:48:29;;;;;;;31.77;20.35;;;;;;;8.63;90.81;99346.63;1702571;84;21073;-70
2022/04/22 07:50:58;;;;;;;27.42;20.37;;;;;;;8.64;90.82;99353.73;1706021;84;21089;-71
2022/04/22 07:53:30;;;;;;;29.30;19.32;;;;;;;8.65;90.51;99352.60;1702683;84;21033;-72
2022/04/22 07:55:57;;;;;;;27.93;21.55;;;;;;;8.65;90.33;99347.11;1706829;84;21057;-72
2022/04/22 07:58:25;;;;;;;27.02;20.62;;;;;;;8.63;90.13;99348.00;1679052;84;21768;-72
2022/04/22 08:00:56;;;;;;;32.38;22.75;;;;;;;8.61;90.21;99342.83;1705915;82;21514;-71
2022/04/22 08:03:31;;;;;;;27.75;21.37;;;;;;;8.61;90.02;99340.63;1705949;83;21052;-71
2022/04/22 08:06:02;;;;;;;43.05;23.20;;;;;;;8.63;90.07;99345.26;1680845;84;21115;-71
2022/04/22 08:08:36;;;;;;;29.32;20.82;;;;;;;8.64;90.19;99343.57;1711721;82;21117;-71
2022/04/22 08:11:06;;;;;;;30.30;21.52;;;;;;;8.69;90.19;99342.62;1705907;84;21105;-71
2022/04/22 08:13:35;;;;;;;31.02;22.70;;;;;;;8.71;90.24;99340.94;1706136;84;21577;-71
2022/04/22 08:16:08;;;;;;;29.48;21.75;;;;;;;8.76;90.47;99344.94;1681132;82;21629;-71
2022/04/22 08:18:39;;;;;;;30.62;22.00;;;;;;;8.87;90.49;99352.38;1704090;84;21030;-72
2022/04/22 08:21:20;;;;;;;33.35;23.18;;;;;;;8.95;90.35;99352.18;1707649;82;21082;-71
2022/04/22 08:23:50;;;;;;;32.10;22.52;;;;;;;8.98;90.10;99357.86;1704501;82;21070;-71
2022/04/22 08:26:21;;;;;;;32.55;22.75;;;;;;;8.99;89.63;99359.48;1681514;84;21075;-70
2022/04/22 08:29:00;;;;;;;29.00;21.45;;;;;;;8.96;89.43;99365.60;1700279;82;21011;-72
2022/04/22 08:31:27;;;;;;;34.27;22.53;;;;;;;8.96;89.42;99367.53;1706424;84;21798;-71
2022/04/22 08:34:00;;;;;;;28.87;21.90;;;;;;;8.95;89.20;99369.48;1706198;82;21022;-73
2022/04/22 08:36:28;;;;;;;29.95;21.23;;;;;;;8.93;89.06;99366.78;1706418;83;21109;-71
2022/04/22 08:38:57;;;;;;;30.68;22.87;;;;;;;8.87;88.85;99373.78;1706555;82;21061;-74
2022/04/22 08:41:24;;;;;;;33.30;23.27;;;;;;;8.80;88.72;99375.35;1707148;82;21479;-72
2022/04/22 08:44:00;;;;;;;29.07;21.75;;;;;;;8.80;88.86;99376.72;1709758;82;21085;-73
2022/04/22 08:52:11;;;;;;;29.75;22.75;;;;;;;8.83;88.67;99371.42;1674231;83;21124;-72
2022/04/22 08:54:45;;;;;;;33.73;23.10;;;;;;;8.86;88.62;99379.59;1643569;85;22076;-72
2022/04/22 08:57:15;;;;;;;30.23;21.02;;;;;;;8.86;88.70;99374.09;1660474;85;21089;-72
2022/04/22 08:59:44;;;;;;;27.75;21.27;;;;;;;8.92;88.87;99367.38;1658297;85;21049;-72
2022/04/22 09:02:13;;;;;;;27.82;22.17;;;;;;;8.96;88.63;99373.84;1722714;82;21630;-71
2022/04/22 09:04:50;;;;;;;27.32;20.85;;;;;;;8.96;88.32;99370.28;1726585;82;21535;-72
2022/04/22 09:07:32;;;;;;;33.00;21.42;;;;;;;8.95;88.29;99374.98;1724445;82;21052;-73
2022/04/22 09:10:01;;;;;;;28.05;21.70;;;;;;;8.96;88.13;99377.97;1727348;82;21215;-74
2022/04/22 09:12:29;;;;;;;33.55;22.95;;;;;;;8.95;88.24;99370.86;1711110;82;21089;-72
2022/04/22 09:14:59;;;;;;;29.05;20.90;;;;;;;8.94;88.24;99373.92;1711026;82;21046;-72
2022/04/22 09:17:35;;;;;;;34.73;21.90;;;;;;;8.94;87.87;99380.21;1708684;82;21105;-73
2022/04/22 09:20:05;;;;;;;32.40;22.22;;;;;;;8.91;87.91;99383.59;1706155;82;21061;-71
2022/04/22 09:22:52;;;;;;;32.58;23.30;;;;;;;8.86;87.48;99388.66;1718405;82;21037;-72
2022/04/22 09:25:23;;;;;;;28.98;21.00;;;;;;;8.84;87.68;99391.45;1718489;82;21014;-73
2022/04/22 09:27:50;;;;;;;34.23;22.55;;;;;;;8.84;87.52;99395.56;1715650;82;21064;-73
2022/04/22 09:30:18;;;;;;;29.45;21.20;;;;;;;8.79;87.40;99395.69;1719507;82;21092;-73
2022/04/22 09:32:51;;;;;;;31.05;22.50;;;;;;;8.73;87.41;99391.72;1714591;82;21150;-71
2022/04/22 09:35:24;;;;;;;35.33;23.27;;;;;;;8.74;87.54;99397.45;1714307;82;21621;-73
2022/04/22 09:43:45;;;;;;;30.95;22.55;;;;;;;8.78;87.57;99396.27;1713439;82;21021;-72
2022/04/22 09:46:37;;;;;;;33.00;23.07;;;;;;;8.80;87.62;99399.53;1718064;82;21065;-73
2022/04/22 09:49:09;;;;;;;32.78;22.52;;;;;;;8.86;87.83;99401.02;1715469;81;21136;-72
2022/04/22 09:51:42;;;;;;;34.88;22.80;;;;;;;8.91;87.76;99411.63;1680827;83;20966;-71
2022/04/22 09:54:22;;;;;;;27.80;20.97;;;;;;;8.93;87.72;99401.95;1631332;86;21135;-70
2022/04/22 09:56:57;;;;;;;31.02;23.12;;;;;;;8.94;87.59;99401.41;1671159;84;21095;-71
2022/04/22 09:59:26;;;;;;;31.90;22.20;;;;;;;8.94;87.49;99403.57;1672565;84;21166;-71
2022/04/22 10:01:56;;;;;;;31.50;21.95;;;;;;;8.96;87.68;99406.83;1668607;84;21561;-71
2022/04/22 10:04:26;;;;;;;34.03;23.77;;;;;;;8.96;87.56;99405.45;1712419;82;21275;-70
2022/04/22 10:06:57;;;;;;;33.20;24.00;;;;;;;8.97;87.52;99409.02;1713830;82;22215;-72
2022/04/22 10:09:23;;;;;;;29.70;22.62;;;;;;;8.96;87.47;99411.50;1730937;82;21060;-71
2022/04/22 10:11:52;;;;;;;36.23;24.15;;;;;;;8.95;87.54;99412.08;1715562;82;21044;-72
2022/04/22 10:14:22;;;;;;;34.40;23.85;;;;;;;8.97;87.60;99413.93;1712394;81;21711;-73
2022/04/22 10:16:48;;;;;;;38.02;22.25;;;;;;;8.98;87.55;99425.75;1711138;82;21601;-72
2022/04/22 10:19:17;;;;;;;40.50;25.12;;;;;;;8.97;87.60;99419.43;1712767;82;21028;-73
2022/04/22 10:21:45;;;;;;;32.98;24.05;;;;;;;8.96;87.62;99430.73;1711965;82;21536;-72
2022/04/22 10:24:13;;;;;;;44.40;27.20;;;;;;;8.96;87.82;99430.19;1663625;85;21128;-73
2022/04/22 10:26:42;;;;;;;38.80;26.17;;;;;;;8.99;87.98;99432.89;1639131;86;21615;-72
2022/04/22 10:29:13;;;;;;;37.30;24.30;;;;;;;9.03;87.86;99428.92;1646903;86;21050;-70
2022/04/22 10:31:41;;;;;;;34.35;22.20;;;;;;;9.02;87.87;99422.64;1645224;86;21161;-72
2022/04/22 10:34:09;;;;;;;31.25;23.18;;;;;;;9.08;87.79;99432.38;1657809;85;21072;-73
2022/04/22 10:36:40;;;;;;;32.08;22.52;;;;;;;9.10;87.76;99430.69;1614955;85;21029;-72
2022/04/22 10:39:08;;;;;;;29.12;21.30;;;;;;;9.10;87.79;99427.94;1662952;85;21261;-74
2022/04/22 10:41:50;;;;;;;32.73;21.40;;;;;;;9.11;87.84;99430.95;1695778;83;21404;-72
2022/04/22 10:47:13;;;;;;;30.32;21.45;;;;;;;9.16;87.75;99430.80;1628488;85;21191;-73
2022/04/22 10:49:44;;;;;;;33.30;21.95;;;;;;;9.16;87.65;99430.01;1676360;83;21580;-72
2022/04/22 10:52:19;;;;;;;35.23;22.15;;;;;;;9.19;87.82;99426.62;1664692;85;21874;-72
2022/04/22 10:54:59;;;;;;;32.40;20.75;;;;;;;9.20;87.73;99434.56;1669214;85;21121;-72
2022/04/22 10:57:36;;;;;;;32.10;22.02;;;;;;;9.24;87.76;99436.95;1669107;85;21109;-73
2022/04/22 11:00:14;;;;;;;32.85;22.30;;;;;;;9.27;87.58;99437.42;1673535;83;21048;-73
2022/04/22 11:02:43;;;;;;;30.43;21.48;;;;;;;9.29;87.51;99435.17;1667685;85;21026;-73
2022/04/22 11:05:25;;;;;;;28.65;19.87;;;;;;;9.31;87.51;99427.44;1671791;85;21237;-71
2022/04/22 11:07:58;;;;;;;29.00;20.35;;;;;;;9.28;87.42;99430.23;1667741;85;21548;-74
2022/04/22 11:10:52;;;;;;;31.87;21.65;;;;;;;9.29;87.44;99435.17;1671586;85;33267;-73
2022/04/22 11:13:44;;;;;;;31.15;22.37;;;;;;;9.32;87.62;99427.67;1667873;85;21062;-73
2022/04/22 11:16:28;;;;;;;29.00;19.87;;;;;;;9.37;87.60;99428.92;1664197;85;21042;-72
2022/04/22 11:19:27;;;;;;;36.65;23.07;;;;;;;9.39;87.37;99433.55;1667431;85;21792;-72
2022/04/22 11:21:57;;;;;;;30.80;21.60;;;;;;;9.42;87.34;99430.16;1683683;84;21027;-73
2022/04/22 11:24:30;;;;;;;34.75;21.73;;;;;;;9.49;87.68;99425.04;1705113;84;21055;-73
2022/04/22 11:27:08;;;;;;;27.20;19.90;;;;;;;9.60;87.87;99415.14;1703480;84;20935;-73
2022/04/22 11:29:36;;;;;;;28.25;21.87;;;;;;;9.74;88.12;99410.92;1703237;82;20969;-73
2022/04/22 11:32:21;;;;;;;23.67;18.15;;;;;;;9.91;88.02;99410.16;1705025;84;21541;-71
2022/04/22 11:35:13;;;;;;;27.82;20.97;;;;;;;10.05;87.93;99410.05;1715035;82;20958;-72
2022/04/22 11:37:40;;;;;;;32.40;21.15;;;;;;;10.17;87.59;99421.00;1699716;84;21497;-73
2022/04/22 11:40:10;;;;;;;25.77;20.85;;;;;;;10.28;87.29;99421.53;1704764;84;21121;-73
2022/04/22 11:42:47;;;;;;;31.07;19.57;;;;;;;10.40;87.15;99420.34;1706885;82;21065;-73
2022/04/22 11:45:16;;;;;;;26.67;20.10;;;;;;;10.50;86.74;99418.44;1703189;84;21176;-74
2022/04/22 11:47:45;;;;;;;35.33;22.13;;;;;;;10.57;86.35;99419.59;1702476;84;21750;-73
2022/04/22 11:50:20;;;;;;;25.70;20.43;;;;;;;10.64;85.99;99416.92;1704737;84;21121;-72
2022/04/22 11:52:56;;;;;;;27.80;19.53;;;;;;;10.68;85.68;99416.53;1708778;83;21542;-74
2022/04/22 11:55:24;;;;;;;25.40;19.35;;;;;;;10.69;85.05;99416.76;1706051;84;21522;-74
2022/04/22 12:34:48;;;;;;;24.70;18.12;;;;;;;10.93;82.72;99393.41;1869233;74;22904;-71
2022/04/22 12:37:18;;;;;;;22.93;17.02;;;;;;;10.89;82.28;99401.52;1861606;75;20920;-73
2022/04/22 12:39:49;;;;;;;25.20;17.98;;;;;;;10.86;82.18;99395.28;1862709;75;21936;-72
2022/04/22 12:42:22;;;;;;;21.95;17.32;;;;;;;10.88;82.17;99399.91;1853503;75;20955;-74
2022/04/22 12:54:00;;;;;;;27.95;16.37;;;;;;;10.93;81.62;99394.23;1860627;75;21149;-73
2022/04/22 12:56:29;;;;;;;17.82;13.98;;;;;;;10.90;81.70;99396.23;1865097;75;21016;-73
2022/04/22 12:59:01;;;;;;;22.98;16.30;;;;;;;10.90;81.71;99386.59;1858562;75;20908;-73
2022/04/22 13:01:37;;;;;;;17.50;14.98;;;;;;;10.93;81.73;99385.14;1859624;75;21017;-73
2022/04/22 13:04:20;;;;;;;18.65;15.75;;;;;;;10.96;81.72;99388.63;1861558;75;21076;-71
2022/04/22 13:06:49;;;;;;;20.97;14.87;;;;;;;10.97;81.66;99389.44;1856362;75;21817;-73
2022/04/22 13:09:35;;;;;;;;;;;;;;;;;;;;;
2022/04/22 13:11:51;;;;;;;27.47;16.77;;;;;;;11.02;81.82;99380.41;1853059;75;22196;-73
2022/04/22 13:14:19;;;;;;;20.50;15.58;;;;;;;11.08;81.79;99383.83;1851556;75;21453;-74
2022/04/22 13:16:50;;;;;;;27.17;15.20;;;;;;;11.12;81.78;99381.23;1846463;75;22404;-73
2022/04/22 13:19:16;;;;;;;20.77;15.23;;;;;;;11.15;81.69;99380.56;1863523;75;21959;-73
2022/04/22 13:21:44;;;;;;;20.32;15.40;;;;;;;11.19;81.45;99382.33;1865413;75;21017;-73
2022/04/22 13:24:12;;;;;;;19.05;15.83;;;;;;;11.18;81.49;99379.34;1858516;75;20966;-72
2022/04/22 13:26:40;;;;;;;21.12;13.83;;;;;;;11.22;81.38;99380.06;1864867;75;20989;-72
2022/04/22 13:29:11;;;;;;;19.98;14.68;;;;;;;11.23;81.28;99383.05;1861728;75;21099;-75
2022/04/22 13:31:39;;;;;;;25.72;16.12;;;;;;;11.26;81.30;99381.05;1860717;75;21067;-73